sensor_id;sensor_type;location;lat;lon;timestamp;P1;durP1;ratioP1;P2;durP2;ratioP2
47725;SDS011;33483;48.294;16.388;2022-11-03T00:01:44;21.13;;;8.48;;
47725;SDS011;33483;48.294;16.388;2022-11-03T00:04:14;19.60;;;8.85;;
47725;SDS011;33483;48.294;16.388;2022-11-03T00:06:46;18.02;;;8.52;;
47725;SDS011;33483;48.294;16.388;2022-11-03T00:09:20;15.40;;;8.50;;
47725;SDS011;33483;48.294;16.388;2022-11-03T00:11:49;17.75;;;8.50;;
47725;SDS011;33483;48.294;16.388;2022-11-03T00:14:17;17.33;;;8.93;;
47725;SDS011;33483;48.294;16.388;2022-11-03T00:16:45;18.05;;;8.95;;
47725;SDS011;33483;48.294;16.388;2022-11-03T00:19:13;13.98;;;8.23;;
47725;SDS011;33483;48.294;16.388;2022-11-03T00:21:43;18.13;;;9.75;;
47725;SDS011;33483;48.294;16.388;2022-11-03T00:24:11;27.42;;;9.80;;
47725;SDS011;33483;48.294;16.388;2022-11-03T00:26:39;14.40;;;8.50;;
47725;SDS011;33483;48.294;16.388;2022-11-03T00:29:10;15.63;;;8.20;;
47725;SDS011;33483;48.294;16.388;2022-11-03T00:31:40;16.25;;;8.18;;
47725;SDS011;33483;48.294;16.388;2022-11-03T00:34:09;15.32;;;8.57;;
47725;SDS011;33483;48.294;16.388;2022-11-03T00:36:38;20.30;;;9.05;;
47725;SDS011;33483;48.294;16.388;2022-11-03T00:39:06;19.48;;;9.98;;
47725;SDS011;33483;48.294;16.388;2022-11-03T00:41:34;22.17;;;9.10;;
47725;SDS011;33483;48.294;16.388;2022-11-03T00:44:01;17.80;;;9.93;;
47725;SDS011;33483;48.294;16.388;2022-11-03T00:46:29;15.68;;;8.93;;
47725;SDS011;33483;48.294;16.388;2022-11-03T00:48:56;13.65;;;7.85;;
47725;SDS011;33483;48.294;16.388;2022-11-03T00:51:26;13.38;;;7.75;;
47725;SDS011;33483;48.294;16.388;2022-11-03T00:54:00;20.48;;;8.00;;
47725;SDS011;33483;48.294;16.388;2022-11-03T00:56:30;18.88;;;8.32;;
47725;SDS011;33483;48.294;16.388;2022-11-03T00:59:04;13.75;;;7.45;;
47725;SDS011;33483;48.294;16.388;2022-11-03T01:01:33;13.25;;;7.60;;
47725;SDS011;33483;48.294;16.388;2022-11-03T01:04:16;17.80;;;7.82;;
47725;SDS011;33483;48.294;16.388;2022-11-03T01:07:02;17.50;;;7.47;;
47725;SDS011;33483;48.294;16.388;2022-11-03T01:09:35;16.40;;;7.35;;
47725;SDS011;33483;48.294;16.388;2022-11-03T01:17:16;22.58;;;8.38;;
47725;SDS011;33483;48.294;16.388;2022-11-03T01:19:50;14.35;;;7.07;;
47725;SDS011;33483;48.294;16.388;2022-11-03T01:22:18;17.25;;;7.80;;
47725;SDS011;33483;48.294;16.388;2022-11-03T01:24:46;23.67;;;8.45;;
47725;SDS011;33483;48.294;16.388;2022-11-03T01:27:14;19.30;;;8.02;;
47725;SDS011;33483;48.294;16.388;2022-11-03T01:29:43;13.82;;;7.35;;
47725;SDS011;33483;48.294;16.388;2022-11-03T01:32:10;15.80;;;7.68;;
47725;SDS011;33483;48.294;16.388;2022-11-03T01:34:41;23.45;;;8.85;;
47725;SDS011;33483;48.294;16.388;2022-11-03T01:37:08;20.05;;;8.70;;
47725;SDS011;33483;48.294;16.388;2022-11-03T01:39:35;16.02;;;8.38;;
47725;SDS011;33483;48.294;16.388;2022-11-03T01:42:02;15.65;;;8.18;;
47725;SDS011;33483;48.294;16.388;2022-11-03T01:44:31;15.80;;;8.18;;
47725;SDS011;33483;48.294;16.388;2022-11-03T01:55:23;16.10;;;8.93;;
47725;SDS011;33483;48.294;16.388;2022-11-03T01:58:02;20.80;;;10.43;;
47725;SDS011;33483;48.294;16.388;2022-11-03T02:00:33;10.93;;;6.80;;
47725;SDS011;33483;48.294;16.388;2022-11-03T02:03:01;23.13;;;9.70;;
47725;SDS011;33483;48.294;16.388;2022-11-03T02:05:30;27.13;;;10.75;;
47725;SDS011;33483;48.294;16.388;2022-11-03T02:07:59;20.02;;;10.63;;
47725;SDS011;33483;48.294;16.388;2022-11-03T02:10:28;17.38;;;10.02;;
47725;SDS011;33483;48.294;16.388;2022-11-03T02:12:57;22.30;;;10.57;;
47725;SDS011;33483;48.294;16.388;2022-11-03T02:15:24;18.52;;;9.32;;
47725;SDS011;33483;48.294;16.388;2022-11-03T02:17:53;20.92;;;10.27;;
47725;SDS011;33483;48.294;16.388;2022-11-03T02:20:23;18.98;;;9.65;;
47725;SDS011;33483;48.294;16.388;2022-11-03T02:25:49;22.23;;;9.85;;
47725;SDS011;33483;48.294;16.388;2022-11-03T02:28:19;21.83;;;9.30;;
47725;SDS011;33483;48.294;16.388;2022-11-03T02:38:41;17.30;;;10.15;;
47725;SDS011;33483;48.294;16.388;2022-11-03T02:41:13;17.00;;;10.05;;
47725;SDS011;33483;48.294;16.388;2022-11-03T02:43:42;23.55;;;11.07;;
47725;SDS011;33483;48.294;16.388;2022-11-03T02:46:14;21.73;;;10.93;;
47725;SDS011;33483;48.294;16.388;2022-11-03T02:48:42;23.50;;;11.02;;
47725;SDS011;33483;48.294;16.388;2022-11-03T02:51:10;22.27;;;10.77;;
47725;SDS011;33483;48.294;16.388;2022-11-03T02:53:59;22.92;;;10.90;;
47725;SDS011;33483;48.294;16.388;2022-11-03T02:56:44;17.30;;;11.02;;
47725;SDS011;33483;48.294;16.388;2022-11-03T02:59:23;17.27;;;10.85;;
47725;SDS011;33483;48.294;16.388;2022-11-03T03:01:58;16.15;;;8.32;;
47725;SDS011;33483;48.294;16.388;2022-11-03T03:04:50;15.65;;;9.82;;
47725;SDS011;33483;48.294;16.388;2022-11-03T03:07:23;18.08;;;9.88;;
47725;SDS011;33483;48.294;16.388;2022-11-03T03:09:53;20.58;;;10.10;;
47725;SDS011;33483;48.294;16.388;2022-11-03T03:12:28;20.73;;;10.27;;
47725;SDS011;33483;48.294;16.388;2022-11-03T03:14:57;18.63;;;11.02;;
47725;SDS011;33483;48.294;16.388;2022-11-03T03:22:55;15.93;;;9.98;;
47725;SDS011;33483;48.294;16.388;2022-11-03T03:28:03;21.00;;;9.48;;
47725;SDS011;33483;48.294;16.388;2022-11-03T03:30:36;20.63;;;10.00;;
47725;SDS011;33483;48.294;16.388;2022-11-03T03:33:05;16.48;;;9.73;;
47725;SDS011;33483;48.294;16.388;2022-11-03T03:35:35;27.73;;;10.40;;
47725;SDS011;33483;48.294;16.388;2022-11-03T03:38:07;15.90;;;9.65;;
47725;SDS011;33483;48.294;16.388;2022-11-03T03:40:39;19.45;;;10.20;;
47725;SDS011;33483;48.294;16.388;2022-11-03T03:43:10;20.67;;;10.38;;
47725;SDS011;33483;48.294;16.388;2022-11-03T03:45:43;17.17;;;10.07;;
47725;SDS011;33483;48.294;16.388;2022-11-03T03:48:11;22.45;;;10.65;;
47725;SDS011;33483;48.294;16.388;2022-11-03T03:50:39;16.40;;;10.73;;
47725;SDS011;33483;48.294;16.388;2022-11-03T03:53:09;16.70;;;10.63;;
47725;SDS011;33483;48.294;16.388;2022-11-03T03:55:39;18.88;;;10.52;;
47725;SDS011;33483;48.294;16.388;2022-11-03T03:58:09;18.73;;;10.10;;
47725;SDS011;33483;48.294;16.388;2022-11-03T04:00:38;20.52;;;11.05;;
47725;SDS011;33483;48.294;16.388;2022-11-03T04:03:07;20.70;;;10.73;;
47725;SDS011;33483;48.294;16.388;2022-11-03T04:05:40;18.73;;;9.45;;
47725;SDS011;33483;48.294;16.388;2022-11-03T04:08:07;21.75;;;9.95;;
47725;SDS011;33483;48.294;16.388;2022-11-03T04:10:35;18.20;;;9.85;;
47725;SDS011;33483;48.294;16.388;2022-11-03T04:13:02;20.42;;;9.02;;
47725;SDS011;33483;48.294;16.388;2022-11-03T04:18:35;14.07;;;8.30;;
47725;SDS011;33483;48.294;16.388;2022-11-03T04:21:20;15.63;;;9.35;;
47725;SDS011;33483;48.294;16.388;2022-11-03T04:24:26;17.35;;;8.88;;
47725;SDS011;33483;48.294;16.388;2022-11-03T04:26:54;22.55;;;9.57;;
47725;SDS011;33483;48.294;16.388;2022-11-03T04:29:27;18.42;;;9.55;;
47725;SDS011;33483;48.294;16.388;2022-11-03T04:31:55;19.25;;;9.48;;
47725;SDS011;33483;48.294;16.388;2022-11-03T04:34:23;17.48;;;9.02;;
47725;SDS011;33483;48.294;16.388;2022-11-03T04:36:50;19.00;;;10.00;;
47725;SDS011;33483;48.294;16.388;2022-11-03T04:39:18;16.33;;;8.55;;
47725;SDS011;33483;48.294;16.388;2022-11-03T04:41:46;17.95;;;9.40;;
47725;SDS011;33483;48.294;16.388;2022-11-03T04:44:14;15.15;;;8.73;;
47725;SDS011;33483;48.294;16.388;2022-11-03T04:46:42;20.25;;;8.75;;
47725;SDS011;33483;48.294;16.388;2022-11-03T04:49:13;14.88;;;8.43;;
47725;SDS011;33483;48.294;16.388;2022-11-03T04:51:47;16.88;;;9.35;;
47725;SDS011;33483;48.294;16.388;2022-11-03T04:54:17;18.35;;;9.32;;
47725;SDS011;33483;48.294;16.388;2022-11-03T04:56:48;19.83;;;10.05;;
47725;SDS011;33483;48.294;16.388;2022-11-03T04:59:15;20.65;;;9.25;;
47725;SDS011;33483;48.294;16.388;2022-11-03T05:01:45;15.10;;;9.05;;
47725;SDS011;33483;48.294;16.388;2022-11-03T05:04:13;18.23;;;9.90;;
47725;SDS011;33483;48.294;16.388;2022-11-03T05:06:47;15.55;;;8.93;;
47725;SDS011;33483;48.294;16.388;2022-11-03T05:09:20;22.45;;;10.27;;
47725;SDS011;33483;48.294;16.388;2022-11-03T05:11:53;17.08;;;9.82;;
47725;SDS011;33483;48.294;16.388;2022-11-03T05:14:24;20.50;;;9.90;;
47725;SDS011;33483;48.294;16.388;2022-11-03T05:16:53;19.42;;;9.73;;
47725;SDS011;33483;48.294;16.388;2022-11-03T05:19:23;17.60;;;9.98;;
47725;SDS011;33483;48.294;16.388;2022-11-03T05:21:54;17.88;;;10.65;;
47725;SDS011;33483;48.294;16.388;2022-11-03T05:24:25;21.50;;;10.27;;
47725;SDS011;33483;48.294;16.388;2022-11-03T05:26:53;21.05;;;9.40;;
47725;SDS011;33483;48.294;16.388;2022-11-03T05:29:29;20.67;;;9.15;;
47725;SDS011;33483;48.294;16.388;2022-11-03T05:32:10;21.02;;;9.55;;
47725;SDS011;33483;48.294;16.388;2022-11-03T05:34:43;17.10;;;8.98;;
47725;SDS011;33483;48.294;16.388;2022-11-03T05:37:23;18.33;;;9.93;;
47725;SDS011;33483;48.294;16.388;2022-11-03T05:39:54;14.15;;;8.88;;
47725;SDS011;33483;48.294;16.388;2022-11-03T05:42:28;18.63;;;9.55;;
47725;SDS011;33483;48.294;16.388;2022-11-03T05:45:00;18.05;;;9.23;;
47725;SDS011;33483;48.294;16.388;2022-11-03T05:47:31;15.10;;;8.27;;
47725;SDS011;33483;48.294;16.388;2022-11-03T05:50:19;21.42;;;8.52;;
47725;SDS011;33483;48.294;16.388;2022-11-03T05:52:48;21.05;;;10.10;;
47725;SDS011;33483;48.294;16.388;2022-11-03T05:55:23;18.33;;;9.90;;
47725;SDS011;33483;48.294;16.388;2022-11-03T05:57:56;24.23;;;13.32;;
47725;SDS011;33483;48.294;16.388;2022-11-03T06:00:27;22.90;;;12.10;;
47725;SDS011;33483;48.294;16.388;2022-11-03T06:02:56;17.10;;;10.93;;
47725;SDS011;33483;48.294;16.388;2022-11-03T06:05:25;12.43;;;8.23;;
47725;SDS011;33483;48.294;16.388;2022-11-03T06:07:55;20.88;;;8.35;;
47725;SDS011;33483;48.294;16.388;2022-11-03T06:10:27;16.92;;;7.60;;
47725;SDS011;33483;48.294;16.388;2022-11-03T06:13:00;13.57;;;8.13;;
47725;SDS011;33483;48.294;16.388;2022-11-03T06:15:35;15.57;;;8.77;;
47725;SDS011;33483;48.294;16.388;2022-11-03T06:18:10;25.95;;;8.95;;
47725;SDS011;33483;48.294;16.388;2022-11-03T06:20:48;14.48;;;7.70;;
47725;SDS011;33483;48.294;16.388;2022-11-03T06:23:20;16.48;;;8.20;;
47725;SDS011;33483;48.294;16.388;2022-11-03T06:25:52;16.25;;;7.70;;
47725;SDS011;33483;48.294;16.388;2022-11-03T06:28:22;15.27;;;7.85;;
47725;SDS011;33483;48.294;16.388;2022-11-03T06:30:56;14.80;;;7.85;;
47725;SDS011;33483;48.294;16.388;2022-11-03T06:33:25;14.95;;;8.60;;
47725;SDS011;33483;48.294;16.388;2022-11-03T06:36:05;17.23;;;7.80;;
47725;SDS011;33483;48.294;16.388;2022-11-03T06:38:50;18.98;;;8.75;;
47725;SDS011;33483;48.294;16.388;2022-11-03T06:41:25;16.20;;;8.32;;
47725;SDS011;33483;48.294;16.388;2022-11-03T06:43:57;14.82;;;7.93;;
47725;SDS011;33483;48.294;16.388;2022-11-03T06:46:28;13.02;;;7.97;;
47725;SDS011;33483;48.294;16.388;2022-11-03T06:48:57;17.73;;;8.27;;
47725;SDS011;33483;48.294;16.388;2022-11-03T06:51:27;17.85;;;8.52;;
47725;SDS011;33483;48.294;16.388;2022-11-03T06:53:58;19.33;;;9.07;;
47725;SDS011;33483;48.294;16.388;2022-11-03T06:56:27;18.85;;;8.27;;
47725;SDS011;33483;48.294;16.388;2022-11-03T06:58:57;15.73;;;8.93;;
47725;SDS011;33483;48.294;16.388;2022-11-03T07:01:26;17.13;;;8.45;;
47725;SDS011;33483;48.294;16.388;2022-11-03T07:04:30;15.73;;;8.25;;
47725;SDS011;33483;48.294;16.388;2022-11-03T07:06:59;22.13;;;8.75;;
47725;SDS011;33483;48.294;16.388;2022-11-03T07:09:28;19.45;;;8.48;;
47725;SDS011;33483;48.294;16.388;2022-11-03T07:11:56;18.65;;;7.03;;
47725;SDS011;33483;48.294;16.388;2022-11-03T07:14:30;15.88;;;7.43;;
47725;SDS011;33483;48.294;16.388;2022-11-03T07:17:02;14.13;;;7.28;;
47725;SDS011;33483;48.294;16.388;2022-11-03T07:19:38;15.35;;;8.00;;
47725;SDS011;33483;48.294;16.388;2022-11-03T07:22:13;17.00;;;7.80;;
47725;SDS011;33483;48.294;16.388;2022-11-03T07:24:47;18.27;;;7.78;;
47725;SDS011;33483;48.294;16.388;2022-11-03T07:30:19;14.82;;;7.38;;
47725;SDS011;33483;48.294;16.388;2022-11-03T07:32:50;15.57;;;7.70;;
47725;SDS011;33483;48.294;16.388;2022-11-03T07:35:27;12.65;;;7.30;;
47725;SDS011;33483;48.294;16.388;2022-11-03T07:38:19;15.35;;;7.43;;
47725;SDS011;33483;48.294;16.388;2022-11-03T07:40:48;14.00;;;7.28;;
47725;SDS011;33483;48.294;16.388;2022-11-03T07:43:18;16.55;;;8.00;;
47725;SDS011;33483;48.294;16.388;2022-11-03T07:45:51;14.52;;;6.45;;
47725;SDS011;33483;48.294;16.388;2022-11-03T07:48:23;14.70;;;7.60;;
47725;SDS011;33483;48.294;16.388;2022-11-03T07:50:59;17.52;;;7.50;;
47725;SDS011;33483;48.294;16.388;2022-11-03T07:53:52;19.58;;;8.02;;
47725;SDS011;33483;48.294;16.388;2022-11-03T07:56:25;15.15;;;7.63;;
47725;SDS011;33483;48.294;16.388;2022-11-03T07:58:59;14.20;;;6.88;;
47725;SDS011;33483;48.294;16.388;2022-11-03T08:01:30;13.30;;;8.02;;
47725;SDS011;33483;48.294;16.388;2022-11-03T08:04:03;18.40;;;7.20;;
47725;SDS011;33483;48.294;16.388;2022-11-03T08:06:32;15.55;;;7.53;;
47725;SDS011;33483;48.294;16.388;2022-11-03T08:09:00;15.68;;;7.95;;
47725;SDS011;33483;48.294;16.388;2022-11-03T08:11:27;18.63;;;7.72;;
47725;SDS011;33483;48.294;16.388;2022-11-03T08:13:56;22.15;;;8.07;;
47725;SDS011;33483;48.294;16.388;2022-11-03T08:16:23;17.25;;;7.63;;
47725;SDS011;33483;48.294;16.388;2022-11-03T08:18:50;21.90;;;7.50;;
47725;SDS011;33483;48.294;16.388;2022-11-03T08:21:17;16.52;;;7.70;;
47725;SDS011;33483;48.294;16.388;2022-11-03T08:23:45;14.82;;;6.82;;
47725;SDS011;33483;48.294;16.388;2022-11-03T08:26:15;17.98;;;7.80;;
47725;SDS011;33483;48.294;16.388;2022-11-03T08:28:43;15.43;;;7.13;;
47725;SDS011;33483;48.294;16.388;2022-11-03T08:31:10;16.30;;;6.70;;
47725;SDS011;33483;48.294;16.388;2022-11-03T08:33:39;15.50;;;7.10;;
47725;SDS011;33483;48.294;16.388;2022-11-03T08:36:09;15.63;;;6.82;;
47725;SDS011;33483;48.294;16.388;2022-11-03T08:38:37;11.82;;;5.82;;
47725;SDS011;33483;48.294;16.388;2022-11-03T08:41:05;15.48;;;5.95;;
47725;SDS011;33483;48.294;16.388;2022-11-03T08:43:32;12.20;;;5.30;;
47725;SDS011;33483;48.294;16.388;2022-11-03T08:45:59;12.70;;;4.93;;
47725;SDS011;33483;48.294;16.388;2022-11-03T08:48:38;11.63;;;5.40;;
47725;SDS011;33483;48.294;16.388;2022-11-03T08:51:06;13.93;;;5.72;;
47725;SDS011;33483;48.294;16.388;2022-11-03T08:53:38;24.42;;;6.10;;
47725;SDS011;33483;48.294;16.388;2022-11-03T08:56:06;15.10;;;5.47;;
47725;SDS011;33483;48.294;16.388;2022-11-03T08:58:38;13.98;;;5.53;;
47725;SDS011;33483;48.294;16.388;2022-11-03T09:01:08;13.35;;;5.82;;
47725;SDS011;33483;48.294;16.388;2022-11-03T09:03:35;12.75;;;6.38;;
47725;SDS011;33483;48.294;16.388;2022-11-03T09:06:02;15.07;;;6.32;;
47725;SDS011;33483;48.294;16.388;2022-11-03T09:08:30;17.90;;;6.75;;
47725;SDS011;33483;48.294;16.388;2022-11-03T09:11:17;13.20;;;5.93;;
47725;SDS011;33483;48.294;16.388;2022-11-03T09:13:44;13.52;;;6.20;;
47725;SDS011;33483;48.294;16.388;2022-11-03T09:16:11;14.68;;;6.07;;
47725;SDS011;33483;48.294;16.388;2022-11-03T09:18:38;11.15;;;5.45;;
47725;SDS011;33483;48.294;16.388;2022-11-03T09:21:06;13.02;;;5.50;;
47725;SDS011;33483;48.294;16.388;2022-11-03T09:23:35;12.88;;;5.60;;
47725;SDS011;33483;48.294;16.388;2022-11-03T09:26:03;14.20;;;5.93;;
47725;SDS011;33483;48.294;16.388;2022-11-03T09:28:32;11.30;;;5.07;;
47725;SDS011;33483;48.294;16.388;2022-11-03T09:30:59;15.32;;;4.88;;
47725;SDS011;33483;48.294;16.388;2022-11-03T09:33:26;12.60;;;4.57;;
47725;SDS011;33483;48.294;16.388;2022-11-03T09:35:54;9.95;;;3.90;;
47725;SDS011;33483;48.294;16.388;2022-11-03T09:38:21;8.15;;;3.42;;
47725;SDS011;33483;48.294;16.388;2022-11-03T09:40:48;9.98;;;3.55;;
47725;SDS011;33483;48.294;16.388;2022-11-03T09:43:15;9.68;;;3.20;;
47725;SDS011;33483;48.294;16.388;2022-11-03T09:45:43;14.48;;;3.30;;
47725;SDS011;33483;48.294;16.388;2022-11-03T09:48:10;9.93;;;3.25;;
47725;SDS011;33483;48.294;16.388;2022-11-03T09:50:38;7.38;;;3.05;;
47725;SDS011;33483;48.294;16.388;2022-11-03T09:53:08;11.05;;;2.75;;
47725;SDS011;33483;48.294;16.388;2022-11-03T09:55:38;9.90;;;2.85;;
47725;SDS011;33483;48.294;16.388;2022-11-03T09:58:14;8.40;;;3.42;;
47725;SDS011;33483;48.294;16.388;2022-11-03T10:00:43;10.38;;;2.72;;
47725;SDS011;33483;48.294;16.388;2022-11-03T10:03:11;12.48;;;3.33;;
47725;SDS011;33483;48.294;16.388;2022-11-03T10:05:40;11.32;;;2.88;;
47725;SDS011;33483;48.294;16.388;2022-11-03T10:08:27;8.88;;;2.55;;
47725;SDS011;33483;48.294;16.388;2022-11-03T10:10:57;8.35;;;2.58;;
47725;SDS011;33483;48.294;16.388;2022-11-03T10:13:33;11.10;;;2.75;;
47725;SDS011;33483;48.294;16.388;2022-11-03T10:16:05;11.80;;;3.08;;
47725;SDS011;33483;48.294;16.388;2022-11-03T10:18:35;8.60;;;2.88;;
47725;SDS011;33483;48.294;16.388;2022-11-03T10:21:04;9.43;;;2.95;;
47725;SDS011;33483;48.294;16.388;2022-11-03T10:23:33;13.73;;;3.30;;
47725;SDS011;33483;48.294;16.388;2022-11-03T10:26:13;9.77;;;3.10;;
47725;SDS011;33483;48.294;16.388;2022-11-03T10:29:20;14.07;;;2.90;;
47725;SDS011;33483;48.294;16.388;2022-11-03T10:31:51;20.17;;;2.80;;
47725;SDS011;33483;48.294;16.388;2022-11-03T10:34:36;4.32;;;2.53;;
47725;SDS011;33483;48.294;16.388;2022-11-03T10:37:17;7.22;;;2.47;;
47725;SDS011;33483;48.294;16.388;2022-11-03T10:39:49;14.73;;;2.85;;
47725;SDS011;33483;48.294;16.388;2022-11-03T10:42:28;7.80;;;2.60;;
47725;SDS011;33483;48.294;16.388;2022-11-03T10:47:58;10.50;;;2.78;;
47725;SDS011;33483;48.294;16.388;2022-11-03T10:50:27;7.38;;;2.25;;
47725;SDS011;33483;48.294;16.388;2022-11-03T10:52:54;9.75;;;2.33;;
47725;SDS011;33483;48.294;16.388;2022-11-03T10:55:23;8.63;;;2.00;;
47725;SDS011;33483;48.294;16.388;2022-11-03T10:57:51;6.75;;;2.10;;
47725;SDS011;33483;48.294;16.388;2022-11-03T11:00:21;6.22;;;2.75;;
47725;SDS011;33483;48.294;16.388;2022-11-03T11:02:50;13.40;;;2.58;;
47725;SDS011;33483;48.294;16.388;2022-11-03T11:05:24;9.90;;;2.20;;
47725;SDS011;33483;48.294;16.388;2022-11-03T11:07:52;12.43;;;2.35;;
47725;SDS011;33483;48.294;16.388;2022-11-03T11:10:24;7.97;;;2.25;;
47725;SDS011;33483;48.294;16.388;2022-11-03T11:23:53;10.77;;;2.40;;
47725;SDS011;33483;48.294;16.388;2022-11-03T11:31:34;9.98;;;2.70;;
47725;SDS011;33483;48.294;16.388;2022-11-03T11:36:38;7.55;;;2.30;;
47725;SDS011;33483;48.294;16.388;2022-11-03T11:52:42;5.60;;;2.33;;
47725;SDS011;33483;48.294;16.388;2022-11-03T11:58:00;8.70;;;2.83;;
47725;SDS011;33483;48.294;16.388;2022-11-03T12:00:31;10.75;;;2.70;;
47725;SDS011;33483;48.294;16.388;2022-11-03T12:03:01;7.82;;;2.67;;
47725;SDS011;33483;48.294;16.388;2022-11-03T12:05:32;13.07;;;2.63;;
47725;SDS011;33483;48.294;16.388;2022-11-03T12:08:15;21.88;;;2.95;;
47725;SDS011;33483;48.294;16.388;2022-11-03T12:10:50;6.13;;;2.13;;
47725;SDS011;33483;48.294;16.388;2022-11-03T12:16:25;9.60;;;2.35;;
47725;SDS011;33483;48.294;16.388;2022-11-03T12:18:56;8.45;;;2.30;;
47725;SDS011;33483;48.294;16.388;2022-11-03T12:21:47;10.32;;;2.50;;
47725;SDS011;33483;48.294;16.388;2022-11-03T12:26:58;15.07;;;2.75;;
47725;SDS011;33483;48.294;16.388;2022-11-03T12:29:28;9.10;;;2.08;;
47725;SDS011;33483;48.294;16.388;2022-11-03T12:31:55;7.35;;;1.80;;
47725;SDS011;33483;48.294;16.388;2022-11-03T12:34:22;10.52;;;2.30;;
47725;SDS011;33483;48.294;16.388;2022-11-03T12:36:50;6.22;;;2.67;;
47725;SDS011;33483;48.294;16.388;2022-11-03T12:39:22;7.90;;;2.83;;
47725;SDS011;33483;48.294;16.388;2022-11-03T12:41:49;6.82;;;2.20;;
47725;SDS011;33483;48.294;16.388;2022-11-03T12:44:16;10.95;;;2.45;;
47725;SDS011;33483;48.294;16.388;2022-11-03T12:46:43;9.80;;;2.78;;
47725;SDS011;33483;48.294;16.388;2022-11-03T12:49:10;7.10;;;2.67;;
47725;SDS011;33483;48.294;16.388;2022-11-03T12:51:38;9.43;;;2.65;;
47725;SDS011;33483;48.294;16.388;2022-11-03T12:54:05;5.40;;;2.10;;
47725;SDS011;33483;48.294;16.388;2022-11-03T12:56:32;5.63;;;2.17;;
47725;SDS011;33483;48.294;16.388;2022-11-03T12:59:01;4.55;;;2.30;;
47725;SDS011;33483;48.294;16.388;2022-11-03T13:01:31;5.80;;;2.30;;
47725;SDS011;33483;48.294;16.388;2022-11-03T13:04:01;11.88;;;2.45;;
47725;SDS011;33483;48.294;16.388;2022-11-03T13:06:31;5.25;;;2.40;;
47725;SDS011;33483;48.294;16.388;2022-11-03T13:08:58;11.98;;;2.35;;
47725;SDS011;33483;48.294;16.388;2022-11-03T13:11:29;6.90;;;2.50;;
47725;SDS011;33483;48.294;16.388;2022-11-03T13:14:14;7.05;;;2.53;;
47725;SDS011;33483;48.294;16.388;2022-11-03T13:16:44;7.68;;;2.50;;
47725;SDS011;33483;48.294;16.388;2022-11-03T13:19:11;3.42;;;2.08;;
47725;SDS011;33483;48.294;16.388;2022-11-03T13:21:41;8.05;;;2.35;;
47725;SDS011;33483;48.294;16.388;2022-11-03T13:24:10;10.55;;;2.72;;
47725;SDS011;33483;48.294;16.388;2022-11-03T13:26:38;8.95;;;2.63;;
47725;SDS011;33483;48.294;16.388;2022-11-03T13:29:05;8.23;;;2.50;;
47725;SDS011;33483;48.294;16.388;2022-11-03T13:31:32;6.20;;;2.33;;
47725;SDS011;33483;48.294;16.388;2022-11-03T13:34:01;9.32;;;2.45;;
47725;SDS011;33483;48.294;16.388;2022-11-03T13:36:31;12.88;;;3.17;;
47725;SDS011;33483;48.294;16.388;2022-11-03T13:38:58;10.68;;;2.75;;
47725;SDS011;33483;48.294;16.388;2022-11-03T13:41:25;8.93;;;2.88;;
47725;SDS011;33483;48.294;16.388;2022-11-03T13:43:52;6.00;;;2.65;;
47725;SDS011;33483;48.294;16.388;2022-11-03T13:46:19;8.35;;;2.70;;
47725;SDS011;33483;48.294;16.388;2022-11-03T13:48:46;7.38;;;2.90;;
47725;SDS011;33483;48.294;16.388;2022-11-03T13:51:36;10.38;;;2.85;;
47725;SDS011;33483;48.294;16.388;2022-11-03T13:54:03;10.27;;;2.55;;
47725;SDS011;33483;48.294;16.388;2022-11-03T13:56:50;9.90;;;2.67;;
47725;SDS011;33483;48.294;16.388;2022-11-03T13:59:37;8.05;;;2.88;;
47725;SDS011;33483;48.294;16.388;2022-11-03T14:02:05;6.97;;;2.92;;
47725;SDS011;33483;48.294;16.388;2022-11-03T14:04:52;5.35;;;2.63;;
47725;SDS011;33483;48.294;16.388;2022-11-03T14:07:19;16.35;;;2.97;;
47725;SDS011;33483;48.294;16.388;2022-11-03T14:09:46;7.03;;;2.78;;
47725;SDS011;33483;48.294;16.388;2022-11-03T14:12:13;8.23;;;3.15;;
47725;SDS011;33483;48.294;16.388;2022-11-03T14:15:07;7.53;;;2.65;;
47725;SDS011;33483;48.294;16.388;2022-11-03T14:17:39;8.13;;;2.40;;
47725;SDS011;33483;48.294;16.388;2022-11-03T14:20:07;7.50;;;2.78;;
47725;SDS011;33483;48.294;16.388;2022-11-03T14:22:38;7.45;;;3.10;;
47725;SDS011;33483;48.294;16.388;2022-11-03T14:25:06;7.70;;;3.42;;
47725;SDS011;33483;48.294;16.388;2022-11-03T14:27:34;9.85;;;3.00;;
47725;SDS011;33483;48.294;16.388;2022-11-03T14:30:02;13.20;;;3.60;;
47725;SDS011;33483;48.294;16.388;2022-11-03T14:32:30;8.82;;;3.25;;
47725;SDS011;33483;48.294;16.388;2022-11-03T14:34:57;7.43;;;3.60;;
47725;SDS011;33483;48.294;16.388;2022-11-03T14:37:26;5.55;;;3.00;;
47725;SDS011;33483;48.294;16.388;2022-11-03T14:39:55;7.75;;;3.13;;
47725;SDS011;33483;48.294;16.388;2022-11-03T14:42:23;8.93;;;3.53;;
47725;SDS011;33483;48.294;16.388;2022-11-03T14:44:50;13.35;;;6.63;;
47725;SDS011;33483;48.294;16.388;2022-11-03T14:47:18;7.18;;;4.10;;
47725;SDS011;33483;48.294;16.388;2022-11-03T14:49:49;10.18;;;4.80;;
47725;SDS011;33483;48.294;16.388;2022-11-03T14:52:18;7.63;;;3.30;;
47725;SDS011;33483;48.294;16.388;2022-11-03T14:54:45;7.05;;;3.45;;
47725;SDS011;33483;48.294;16.388;2022-11-03T14:57:12;8.95;;;3.55;;
47725;SDS011;33483;48.294;16.388;2022-11-03T14:59:39;7.38;;;3.50;;
47725;SDS011;33483;48.294;16.388;2022-11-03T15:02:07;12.02;;;3.33;;
47725;SDS011;33483;48.294;16.388;2022-11-03T15:04:37;8.85;;;3.17;;
47725;SDS011;33483;48.294;16.388;2022-11-03T15:07:04;9.15;;;5.05;;
47725;SDS011;33483;48.294;16.388;2022-11-03T15:09:34;10.95;;;3.50;;
47725;SDS011;33483;48.294;16.388;2022-11-03T15:12:02;10.23;;;4.57;;
47725;SDS011;33483;48.294;16.388;2022-11-03T15:14:29;8.73;;;3.70;;
47725;SDS011;33483;48.294;16.388;2022-11-03T15:16:57;13.52;;;3.75;;
47725;SDS011;33483;48.294;16.388;2022-11-03T15:19:24;9.00;;;5.30;;
47725;SDS011;33483;48.294;16.388;2022-11-03T15:21:51;9.23;;;4.18;;
47725;SDS011;33483;48.294;16.388;2022-11-03T15:24:19;11.80;;;5.40;;
47725;SDS011;33483;48.294;16.388;2022-11-03T15:27:08;12.73;;;4.65;;
47725;SDS011;33483;48.294;16.388;2022-11-03T15:29:35;10.38;;;3.60;;
47725;SDS011;33483;48.294;16.388;2022-11-03T15:32:03;7.80;;;3.60;;
47725;SDS011;33483;48.294;16.388;2022-11-03T15:34:30;8.88;;;3.60;;
47725;SDS011;33483;48.294;16.388;2022-11-03T15:36:58;9.30;;;3.67;;
47725;SDS011;33483;48.294;16.388;2022-11-03T15:39:27;8.60;;;4.25;;
47725;SDS011;33483;48.294;16.388;2022-11-03T15:41:55;8.27;;;3.67;;
47725;SDS011;33483;48.294;16.388;2022-11-03T15:44:23;9.80;;;3.92;;
47725;SDS011;33483;48.294;16.388;2022-11-03T15:46:50;8.48;;;3.38;;
47725;SDS011;33483;48.294;16.388;2022-11-03T15:49:17;8.93;;;3.47;;
47725;SDS011;33483;48.294;16.388;2022-11-03T15:51:44;9.05;;;3.65;;
47725;SDS011;33483;48.294;16.388;2022-11-03T15:54:13;9.00;;;3.20;;
47725;SDS011;33483;48.294;16.388;2022-11-03T15:56:40;8.73;;;3.13;;
47725;SDS011;33483;48.294;16.388;2022-11-03T15:59:08;7.13;;;3.47;;
47725;SDS011;33483;48.294;16.388;2022-11-03T16:01:35;13.02;;;4.10;;
47725;SDS011;33483;48.294;16.388;2022-11-03T16:04:03;7.20;;;2.85;;
47725;SDS011;33483;48.294;16.388;2022-11-03T16:06:30;9.73;;;3.75;;
47725;SDS011;33483;48.294;16.388;2022-11-03T16:09:19;5.65;;;2.95;;